CSN8593 ZGSZ-ZYCC
Flight info
| Callsign | CSN8593 |
|---|---|
| Flight time | N/A |
| Altitude | 37100 |
| Route | IDUMA1 IDUMA W22 YIN A461 LIG/K0848S1160 W521 POXIB/K0854S1130 W56 LEBUN/K0839S1160 W56 NUDKU/K0843S1130 W56 VYK G212 TGO G341 BUTET BUTET3A |
| Aircraft | A21N/M-SDE2E3FGHIRWXY/LB1 |
Departure
| Time | N/A |
|---|---|
| Airport | Shenzhen Bao'an International Airport (ZGSZ) |
Arrival
| Time | 2026-05-01 11:29 |
|---|---|
| Airport | Changchun Longjia International Airport (ZYCC) |
| Time | Latitude | Longitude | Altitude | Speed | Heading |
|---|---|---|---|---|---|
| 2026-05-01 10:22 | 39.67780 | 116.79705 | 34964 ft | 471 kts | 9° |
| 2026-05-01 10:23 | 39.77026 | 116.84061 | 34964 ft | 471 kts | 9° |
| 2026-05-01 10:23 | 39.86196 | 116.88343 | 34965 ft | 467 kts | 8° |
| 2026-05-01 10:24 | 39.98465 | 116.94007 | 34968 ft | 466 kts | 8° |
| 2026-05-01 10:25 | 40.10648 | 116.99655 | 34969 ft | 466 kts | 8° |
| 2026-05-01 10:26 | 40.16756 | 117.02499 | 34983 ft | 466 kts | 9° |
| 2026-05-01 10:27 | 40.28944 | 117.08189 | 34975 ft | 467 kts | 9° |
| 2026-05-01 10:28 | 40.38093 | 117.12469 | 34980 ft | 468 kts | 9° |
| 2026-05-01 10:28 | 40.47291 | 117.16790 | 34978 ft | 468 kts | 9° |
| 2026-05-01 10:29 | 40.56447 | 117.21118 | 34969 ft | 468 kts | 8° |
| 2026-05-01 10:30 | 40.68704 | 117.26907 | 34986 ft | 467 kts | 8° |
| 2026-05-01 10:31 | 40.80881 | 117.32964 | 34962 ft | 470 kts | 10° |
| 2026-05-01 10:32 | 40.90031 | 117.37653 | 34964 ft | 470 kts | 10° |
| 2026-05-01 10:33 | 41.01998 | 117.44845 | 34995 ft | 494 kts | 28° |
| 2026-05-01 10:33 | 41.06766 | 117.51718 | 34958 ft | 518 kts | 47° |
| 2026-05-01 10:34 | 41.08783 | 117.55707 | 34957 ft | 522 kts | 50° |
| 2026-05-01 10:34 | 41.12585 | 117.63873 | 34960 ft | 525 kts | 52° |
| 2026-05-01 10:35 | 41.18291 | 117.76292 | 34956 ft | 525 kts | 51° |
| 2026-05-01 10:35 | 41.22085 | 117.84503 | 34960 ft | 524 kts | 51° |
| 2026-05-01 10:36 | 41.27844 | 117.96876 | 34985 ft | 524 kts | 51° |
| 2026-05-01 10:37 | 41.31653 | 118.05082 | 34968 ft | 525 kts | 51° |
| 2026-05-01 10:37 | 41.37402 | 118.17519 | 34968 ft | 527 kts | 51° |
| 2026-05-01 10:38 | 41.41242 | 118.25853 | 34976 ft | 527 kts | 51° |
| 2026-05-01 10:38 | 41.45043 | 118.34123 | 34976 ft | 526 kts | 51° |
| 2026-05-01 10:39 | 41.48866 | 118.42444 | 34984 ft | 525 kts | 49° |
| 2026-05-01 10:39 | 41.53145 | 118.50207 | 34980 ft | 518 kts | 44° |
| 2026-05-01 10:40 | 41.57530 | 118.57747 | 34991 ft | 518 kts | 44° |
| 2026-05-01 10:40 | 41.61963 | 118.65332 | 34996 ft | 518 kts | 43° |
| 2026-05-01 10:41 | 41.66397 | 118.72927 | 34995 ft | 517 kts | 44° |
| 2026-05-01 10:42 | 41.72939 | 118.84330 | 34996 ft | 516 kts | 44° |
| 2026-05-01 10:42 | 41.77325 | 118.91956 | 35032 ft | 516 kts | 43° |
| 2026-05-01 10:43 | 41.81661 | 118.99538 | 35001 ft | 516 kts | 44° |
| 2026-05-01 10:43 | 41.86045 | 119.07163 | 35007 ft | 516 kts | 44° |
| 2026-05-01 10:44 | 41.90424 | 119.14797 | 35039 ft | 516 kts | 43° |
| 2026-05-01 10:44 | 41.94771 | 119.22413 | 34998 ft | 517 kts | 44° |
| 2026-05-01 10:45 | 41.99143 | 119.30085 | 35006 ft | 517 kts | 44° |
| 2026-05-01 10:45 | 42.03508 | 119.37781 | 35052 ft | 518 kts | 44° |
| 2026-05-01 10:46 | 42.07879 | 119.45508 | 35010 ft | 519 kts | 43° |
| 2026-05-01 10:46 | 42.12221 | 119.53196 | 35013 ft | 519 kts | 43° |
| 2026-05-01 10:47 | 42.16590 | 119.60958 | 35040 ft | 519 kts | 44° |
| 2026-05-01 10:47 | 42.20925 | 119.68669 | 35011 ft | 518 kts | 43° |
| 2026-05-01 10:48 | 42.25279 | 119.76435 | 35015 ft | 519 kts | 44° |
| 2026-05-01 10:48 | 42.29628 | 119.84214 | 35014 ft | 518 kts | 43° |
| 2026-05-01 10:49 | 42.33928 | 119.91923 | 35011 ft | 515 kts | 43° |
| 2026-05-01 10:49 | 42.38234 | 119.99673 | 35013 ft | 515 kts | 43° |
| 2026-05-01 10:50 | 42.42528 | 120.07417 | 35013 ft | 515 kts | 43° |
| 2026-05-01 10:50 | 42.46797 | 120.15137 | 35013 ft | 513 kts | 43° |
| 2026-05-01 10:51 | 42.51076 | 120.22892 | 35006 ft | 513 kts | 43° |
| 2026-05-01 10:51 | 42.55324 | 120.30607 | 35008 ft | 513 kts | 43° |
| 2026-05-01 10:52 | 42.59584 | 120.38369 | 35006 ft | 512 kts | 43° |
| 2026-05-01 10:52 | 42.63806 | 120.46080 | 35006 ft | 512 kts | 43° |
| 2026-05-01 10:53 | 42.68053 | 120.53856 | 35003 ft | 512 kts | 43° |
| 2026-05-01 10:53 | 42.72290 | 120.61635 | 35002 ft | 511 kts | 43° |
| 2026-05-01 10:54 | 42.76516 | 120.69414 | 35003 ft | 511 kts | 43° |
| 2026-05-01 10:54 | 42.80716 | 120.77163 | 35002 ft | 511 kts | 43° |
| 2026-05-01 10:55 | 42.84936 | 120.84970 | 35003 ft | 511 kts | 43° |
| 2026-05-01 10:55 | 42.89129 | 120.92748 | 35004 ft | 511 kts | 43° |
| 2026-05-01 10:56 | 42.93338 | 121.00581 | 34997 ft | 511 kts | 43° |
| 2026-05-01 10:56 | 42.97501 | 121.08347 | 35006 ft | 510 kts | 43° |
| 2026-05-01 10:57 | 43.01680 | 121.16162 | 34989 ft | 509 kts | 43° |
| 2026-05-01 10:57 | 43.05850 | 121.23977 | 34994 ft | 508 kts | 43° |
| 2026-05-01 10:58 | 43.09983 | 121.31744 | 35018 ft | 508 kts | 43° |
| 2026-05-01 10:58 | 43.14137 | 121.39573 | 34989 ft | 508 kts | 43° |
| 2026-05-01 10:59 | 43.18283 | 121.47406 | 34987 ft | 508 kts | 43° |
| 2026-05-01 10:59 | 43.22425 | 121.55254 | 34989 ft | 508 kts | 43° |
| 2026-05-01 11:00 | 43.26515 | 121.63033 | 34879 ft | 501 kts | 43° |
| 2026-05-01 11:00 | 43.28550 | 121.66913 | 34649 ft | 503 kts | 43° |
| 2026-05-01 11:00 | 43.30604 | 121.70817 | 34411 ft | 506 kts | 43° |
| 2026-05-01 11:00 | 43.32664 | 121.74740 | 34172 ft | 507 kts | 42° |
| 2026-05-01 11:01 | 43.34729 | 121.78681 | 33931 ft | 508 kts | 42° |
| 2026-05-01 11:01 | 43.36789 | 121.82621 | 33724 ft | 508 kts | 42° |
| 2026-05-01 11:01 | 43.38846 | 121.86563 | 33457 ft | 507 kts | 43° |
| 2026-05-01 11:01 | 43.40876 | 121.90458 | 33178 ft | 507 kts | 43° |
| 2026-05-01 11:02 | 43.42928 | 121.94401 | 32910 ft | 507 kts | 43° |
| 2026-05-01 11:02 | 43.44984 | 121.98355 | 32646 ft | 507 kts | 43° |
| 2026-05-01 11:02 | 43.47040 | 122.02314 | 32382 ft | 507 kts | 43° |
| 2026-05-01 11:02 | 43.49089 | 122.06266 | 32130 ft | 507 kts | 43° |
| 2026-05-01 11:03 | 43.51113 | 122.10177 | 31894 ft | 507 kts | 44° |
| 2026-05-01 11:03 | 43.53134 | 122.14159 | 31631 ft | 511 kts | 47° |
| 2026-05-01 11:03 | 43.54829 | 122.18524 | 31381 ft | 523 kts | 58° |
| 2026-05-01 11:03 | 43.55976 | 122.23356 | 31127 ft | 535 kts | 71° |
| 2026-05-01 11:04 | 43.56558 | 122.28386 | 30890 ft | 540 kts | 77° |
| 2026-05-01 11:04 | 43.56963 | 122.33559 | 30641 ft | 542 kts | 79° |
| 2026-05-01 11:04 | 43.57265 | 122.38748 | 30397 ft | 542 kts | 81° |
| 2026-05-01 11:04 | 43.57522 | 122.43927 | 30155 ft | 541 kts | 81° |
| 2026-05-01 11:05 | 43.57766 | 122.49044 | 29944 ft | 540 kts | 82° |
| 2026-05-01 11:05 | 43.58018 | 122.54207 | 29660 ft | 538 kts | 81° |
| 2026-05-01 11:05 | 43.58281 | 122.59373 | 29374 ft | 537 kts | 81° |
| 2026-05-01 11:05 | 43.58552 | 122.64513 | 29096 ft | 537 kts | 81° |
| 2026-05-01 11:06 | 43.58827 | 122.69640 | 28814 ft | 536 kts | 81° |
| 2026-05-01 11:06 | 43.59100 | 122.74693 | 28532 ft | 535 kts | 81° |
| 2026-05-01 11:06 | 43.59377 | 122.79814 | 28266 ft | 535 kts | 81° |
| 2026-05-01 11:07 | 43.59923 | 122.90037 | 27724 ft | 534 kts | 82° |
| 2026-05-01 11:07 | 43.60191 | 122.95147 | 27457 ft | 534 kts | 82° |
| 2026-05-01 11:07 | 43.60457 | 123.00261 | 27197 ft | 533 kts | 82° |
| 2026-05-01 11:07 | 43.60720 | 123.05368 | 26964 ft | 533 kts | 82° |
| 2026-05-01 11:08 | 43.60980 | 123.10461 | 26707 ft | 532 kts | 82° |
| 2026-05-01 11:08 | 43.61233 | 123.15482 | 26456 ft | 531 kts | 82° |
| 2026-05-01 11:08 | 43.61815 | 123.25626 | 25943 ft | 529 kts | 81° |
| 2026-05-01 11:09 | 43.62145 | 123.30680 | 25692 ft | 529 kts | 81° |
| 2026-05-01 11:09 | 43.62475 | 123.35743 | 25452 ft | 529 kts | 81° |
| 2026-05-01 11:09 | 43.62796 | 123.40727 | 25200 ft | 528 kts | 81° |
| 2026-05-01 11:10 | 43.63438 | 123.50834 | 24714 ft | 528 kts | 81° |
| 2026-05-01 11:10 | 43.63754 | 123.55891 | 24469 ft | 528 kts | 81° |
| 2026-05-01 11:10 | 43.64068 | 123.60935 | 24254 ft | 527 kts | 81° |
| 2026-05-01 11:10 | 43.64375 | 123.65939 | 23867 ft | 515 kts | 82° |
| 2026-05-01 11:11 | 43.64674 | 123.70814 | 23639 ft | 521 kts | 82° |
| 2026-05-01 11:11 | 43.64981 | 123.75830 | 23386 ft | 526 kts | 82° |
| 2026-05-01 11:11 | 43.65285 | 123.80858 | 23106 ft | 525 kts | 82° |
| 2026-05-01 11:11 | 43.65585 | 123.85880 | 22827 ft | 523 kts | 82° |
| 2026-05-01 11:12 | 43.65881 | 123.90871 | 22559 ft | 520 kts | 82° |
| 2026-05-01 11:12 | 43.66170 | 123.95771 | 22290 ft | 518 kts | 82° |
| 2026-05-01 11:12 | 43.66460 | 124.00719 | 22024 ft | 515 kts | 82° |
| 2026-05-01 11:12 | 43.66746 | 124.05634 | 21757 ft | 513 kts | 82° |
| 2026-05-01 11:13 | 43.67028 | 124.10529 | 21494 ft | 510 kts | 82° |
| 2026-05-01 11:13 | 43.67307 | 124.15408 | 21234 ft | 508 kts | 82° |
| 2026-05-01 11:13 | 43.67584 | 124.20259 | 20989 ft | 506 kts | 82° |
| 2026-05-01 11:13 | 43.67840 | 124.25109 | 20734 ft | 505 kts | 85° |
| 2026-05-01 11:14 | 43.67653 | 124.29885 | 20478 ft | 507 kts | 99° |
| 2026-05-01 11:14 | 43.66652 | 124.34537 | 20233 ft | 505 kts | 111° |
| 2026-05-01 11:14 | 43.65296 | 124.39000 | 19985 ft | 503 kts | 114° |
| 2026-05-01 11:14 | 43.63887 | 124.43412 | 19737 ft | 501 kts | 114° |
| 2026-05-01 11:15 | 43.62657 | 124.47900 | 19380 ft | 495 kts | 104° |
| 2026-05-01 11:15 | 43.62163 | 124.52535 | 18454 ft | 486 kts | 88° |
| 2026-05-01 11:15 | 43.62339 | 124.57111 | 17447 ft | 479 kts | 82° |
| 2026-05-01 11:15 | 43.62667 | 124.61651 | 16516 ft | 471 kts | 81° |
| 2026-05-01 11:16 | 43.62988 | 124.66112 | 15597 ft | 463 kts | 82° |
| 2026-05-01 11:16 | 43.63285 | 124.70502 | 14731 ft | 455 kts | 82° |
| 2026-05-01 11:16 | 43.63559 | 124.74778 | 13724 ft | 437 kts | 83° |
| 2026-05-01 11:16 | 43.63809 | 124.78823 | 12810 ft | 421 kts | 83° |
| 2026-05-01 11:17 | 43.64053 | 124.82829 | 11942 ft | 418 kts | 83° |
| 2026-05-01 11:17 | 43.64293 | 124.86820 | 11108 ft | 414 kts | 83° |
| 2026-05-01 11:17 | 43.64520 | 124.90685 | 10861 ft | 392 kts | 83° |
| 2026-05-01 11:17 | 43.64726 | 124.94328 | 10751 ft | 368 kts | 83° |
| 2026-05-01 11:18 | 43.64914 | 124.97711 | 10641 ft | 348 kts | 83° |
| 2026-05-01 11:18 | 43.65096 | 125.00957 | 10529 ft | 329 kts | 83° |
| 2026-05-01 11:18 | 43.65270 | 125.04026 | 10414 ft | 312 kts | 83° |
| 2026-05-01 11:18 | 43.65434 | 125.06941 | 10338 ft | 297 kts | 83° |
| 2026-05-01 11:19 | 43.65591 | 125.09722 | 10250 ft | 286 kts | 82° |
| 2026-05-01 11:19 | 43.65767 | 125.12455 | 9846 ft | 284 kts | 78° |
| 2026-05-01 11:19 | 43.66314 | 125.14997 | 9378 ft | 277 kts | 58° |
| 2026-05-01 11:19 | 43.67391 | 125.17144 | 8995 ft | 269 kts | 46° |
| 2026-05-01 11:20 | 43.68601 | 125.19090 | 8612 ft | 266 kts | 45° |
| 2026-05-01 11:20 | 43.69827 | 125.20999 | 8233 ft | 265 kts | 45° |
| 2026-05-01 11:20 | 43.71047 | 125.22904 | 7838 ft | 263 kts | 45° |
| 2026-05-01 11:20 | 43.72271 | 125.24772 | 7476 ft | 261 kts | 44° |
| 2026-05-01 11:21 | 43.73474 | 125.26571 | 7269 ft | 251 kts | 44° |
| 2026-05-01 11:21 | 43.74593 | 125.28302 | 7210 ft | 232 kts | 45° |
| 2026-05-01 11:21 | 43.75620 | 125.29921 | 7101 ft | 217 kts | 45° |
| 2026-05-01 11:21 | 43.76606 | 125.31484 | 7021 ft | 216 kts | 45° |
| 2026-05-01 11:22 | 43.77595 | 125.33064 | 6998 ft | 218 kts | 45° |
| 2026-05-01 11:22 | 43.78578 | 125.34664 | 6852 ft | 217 kts | 46° |
| 2026-05-01 11:22 | 43.79546 | 125.36233 | 6609 ft | 217 kts | 45° |
| 2026-05-01 11:22 | 43.80531 | 125.37805 | 6284 ft | 215 kts | 46° |
| 2026-05-01 11:23 | 43.81507 | 125.39368 | 5926 ft | 214 kts | 46° |
| 2026-05-01 11:23 | 43.82470 | 125.40914 | 5609 ft | 208 kts | 46° |
| 2026-05-01 11:23 | 43.83410 | 125.42423 | 5293 ft | 206 kts | 45° |
| 2026-05-01 11:23 | 43.84349 | 125.43928 | 4995 ft | 207 kts | 46° |
| 2026-05-01 11:24 | 43.85285 | 125.45432 | 4723 ft | 206 kts | 46° |
| 2026-05-01 11:24 | 43.86206 | 125.46912 | 4450 ft | 205 kts | 46° |
| 2026-05-01 11:24 | 43.88057 | 125.49886 | 3913 ft | 203 kts | 45° |
| 2026-05-01 11:25 | 43.88979 | 125.51368 | 3640 ft | 202 kts | 45° |
| 2026-05-01 11:25 | 43.90770 | 125.54250 | 3116 ft | 189 kts | 46° |
| 2026-05-01 11:25 | 43.91586 | 125.55567 | 2891 ft | 170 kts | 45° |
| 2026-05-01 11:26 | 43.92317 | 125.56744 | 2649 ft | 153 kts | 45° |
| 2026-05-01 11:26 | 43.93587 | 125.58788 | 2272 ft | 132 kts | 43° |
| 2026-05-01 11:26 | 43.94186 | 125.59749 | 2096 ft | 132 kts | 44° |
| 2026-05-01 11:27 | 43.94786 | 125.60716 | 1908 ft | 132 kts | 44° |
| 2026-05-01 11:27 | 43.95387 | 125.61683 | 1737 ft | 132 kts | 44° |
| 2026-05-01 11:27 | 43.95976 | 125.62635 | 1545 ft | 131 kts | 44° |
| 2026-05-01 11:27 | 43.96574 | 125.63598 | 1375 ft | 132 kts | 46° |
| 2026-05-01 11:28 | 43.97171 | 125.64568 | 1194 ft | 131 kts | 47° |
| 2026-05-01 11:28 | 43.97757 | 125.65516 | 1004 ft | 128 kts | 47° |
| 2026-05-01 11:28 | 43.98348 | 125.66453 | 852 ft | 129 kts | 48° |
| 2026-05-01 11:29 | 43.99323 | 125.68012 | 722 ft | 45 kts | 50° |
| 2026-05-01 11:29 | 43.99432 | 125.68181 | 724 ft | 20 kts | 51° |
| 2026-05-01 11:29 | 43.99618 | 125.68493 | 723 ft | 22 kts | 49° |
| 2026-05-01 11:30 | 43.99703 | 125.68678 | 722 ft | 23 kts | 71° |
| 2026-05-01 11:30 | 43.99736 | 125.68903 | 721 ft | 24 kts | 81° |
| 2026-05-01 11:30 | 43.99774 | 125.69100 | 722 ft | 14 kts | 40° |
| 2026-05-01 11:30 | 43.99839 | 125.69198 | 721 ft | 14 kts | 49° |
| 2026-05-01 11:31 | 43.99906 | 125.69308 | 721 ft | 15 kts | 49° |
| 2026-05-01 11:31 | 43.99946 | 125.69424 | 718 ft | 11 kts | 120° |
| 2026-05-01 11:31 | 43.99894 | 125.69496 | 719 ft | 9 kts | 138° |
| 2026-05-01 11:31 | 43.99876 | 125.69518 | 718 ft | 1 kts | 137° |
| 2026-05-01 11:32 | 43.99872 | 125.69526 | 721 ft | 1 kts | 118° |
| 2026-05-01 11:32 | 43.99866 | 125.69542 | 719 ft | 3 kts | 118° |
| 2026-05-01 11:32 | 43.99853 | 125.69562 | 720 ft | 3 kts | 141° |
| 2026-05-01 11:32 | 43.99830 | 125.69588 | 722 ft | 5 kts | 141° |
| 2026-05-01 11:33 | 43.99816 | 125.69604 | 719 ft | 1 kts | 140° |
| 2026-05-01 11:33 | 43.99811 | 125.69610 | 719 ft | 0 kts | 139° |